Time,TemperatureF,DewpointF,PressureIn,WindDirection,WindDirectionDegrees,WindSpeedMPH,WindSpeedGustMPH,Humidity,HourlyPrecipIn,Conditions,Clouds,dailyrainin,SoftwareType,DateUTC
2013-01-03 00:03:00,29.8,16.8,30.57,WNW,293,0.0,4.0,58,0.00,,,0.00,WUHU216HW,2013-01-03 05:03:00,
2013-01-03 00:08:00,29.8,16.8,30.56,WNW,293,0.0,6.0,58,0.00,,,0.00,WUHU216HW,2013-01-03 05:08:00,
2013-01-03 00:13:00,29.6,16.6,30.56,NNW,338,4.4,6.0,58,0.00,,,0.00,WUHU216HW,2013-01-03 05:13:00,
2013-01-03 00:18:00,29.6,16.6,30.56,WNW,293,2.6,5.1,58,0.00,,,0.00,WUHU216HW,2013-01-03 05:18:00,
2013-01-03 00:23:00,29.6,17.0,30.56,WNW,293,2.4,5.1,59,0.00,,,0.00,WUHU216HW,2013-01-03 05:23:00,
2013-01-03 00:28:00,29.6,17.0,30.56,NW,315,4.9,6.0,59,0.00,,,0.00,WUHU216HW,2013-01-03 05:28:00,
2013-01-03 00:33:00,29.6,17.0,30.57,NW,315,0.0,6.0,59,0.00,,,0.00,WUHU216HW,2013-01-03 05:33:00,
2013-01-03 00:38:00,29.4,16.8,30.56,WNW,293,0.0,4.9,59,0.00,,,0.00,WUHU216HW,2013-01-03 05:38:00,
2013-01-03 00:43:00,29.4,16.4,30.56,WNW,293,0.0,0.0,58,0.00,,,0.00,WUHU216HW,2013-01-03 05:43:00,
2013-01-03 00:48:00,29.4,16.4,30.56,NW,315,0.0,0.0,58,0.00,,,0.00,WUHU216HW,2013-01-03 05:48:00,
2013-01-03 00:53:00,29.4,16.4,30.55,WNW,293,0.0,0.0,58,0.00,,,0.00,WUHU216HW,2013-01-03 05:53:00,
2013-01-03 00:58:00,29.4,16.4,30.56,NW,315,6.9,6.9,58,0.00,,,0.00,WUHU216HW,2013-01-03 05:58:00,
2013-01-03 01:03:00,29.4,16.4,30.55,WNW,293,3.5,6.9,58,0.00,,,0.00,WUHU216HW,2013-01-03 06:03:00,
2013-01-03 01:08:00,29.4,16.0,30.55,NW,315,0.0,6.9,57,0.00,,,0.00,WUHU216HW,2013-01-03 06:08:00,
2013-01-03 01:13:00,29.4,16.0,30.55,NW,315,0.0,5.3,57,0.00,,,0.00,WUHU216HW,2013-01-03 06:13:00,
2013-01-03 01:18:00,29.3,15.9,30.56,WNW,293,4.4,5.3,57,0.00,,,0.00,WUHU216HW,2013-01-03 06:18:00,
2013-01-03 01:23:00,29.3,15.9,30.56,WNW,293,3.5,4.4,57,0.00,,,0.00,WUHU216HW,2013-01-03 06:23:00,
2013-01-03 01:28:00,29.1,15.7,30.56,NW,315,3.8,4.0,57,0.00,,,0.00,WUHU216HW,2013-01-03 06:28:00,
2013-01-03 01:33:00,29.3,16.3,30.56,WNW,293,3.5,3.8,58,0.00,,,0.00,WUHU216HW,2013-01-03 06:33:00,
2013-01-03 01:38:00,29.1,16.1,30.56,NW,315,4.2,5.1,58,0.00,,,0.00,WUHU216HW,2013-01-03 06:38:00,
2013-01-03 01:43:00,29.1,16.1,30.57,NW,315,6.2,6.2,58,0.00,,,0.00,WUHU216HW,2013-01-03 06:43:00,
2013-01-03 01:48:00,29.1,16.5,30.57,NW,315,0.0,6.2,59,0.00,,,0.00,WUHU216HW,2013-01-03 06:48:00,
2013-01-03 01:53:00,29.1,16.5,30.56,NW,315,0.0,6.2,59,0.00,,,0.00,WUHU216HW,2013-01-03 06:53:00,
2013-01-03 01:58:00,29.1,16.5,30.56,WNW,293,5.1,5.1,59,0.00,,,0.00,WUHU216HW,2013-01-03 06:58:00,
2013-01-03 02:03:00,29.1,16.5,30.56,NW,315,0.0,5.1,59,0.00,,,0.00,WUHU216HW,2013-01-03 07:03:00,
2013-01-03 02:08:00,29.1,16.5,30.56,NW,315,0.0,5.1,59,0.00,,,0.00,WUHU216HW,2013-01-03 07:08:00,
2013-01-03 02:13:00,29.1,16.5,30.56,NW,315,5.3,6.7,59,0.00,,,0.00,WUHU216HW,2013-01-03 07:13:00,
2013-01-03 02:18:00,28.9,16.4,30.57,WNW,293,6.0,6.7,59,0.00,,,0.00,WUHU216HW,2013-01-03 07:18:00,
2013-01-03 02:23:00,28.9,16.4,30.57,WNW,293,0.0,6.0,59,0.00,,,0.00,WUHU216HW,2013-01-03 07:23:00,
2013-01-03 02:28:00,28.9,16.4,30.57,WNW,293,4.0,4.0,59,0.00,,,0.00,WUHU216HW,2013-01-03 07:28:00,
2013-01-03 02:33:00,28.7,16.2,30.57,WNW,293,0.0,4.0,59,0.00,,,0.00,WUHU216HW,2013-01-03 07:33:00,
2013-01-03 02:38:00,28.7,16.2,30.57,WNW,293,0.0,0.0,59,0.00,,,0.00,WUHU216HW,2013-01-03 07:38:00,
2013-01-03 02:43:00,28.7,16.2,30.57,NW,315,0.0,0.0,59,0.00,,,0.00,WUHU216HW,2013-01-03 07:43:00,
2013-01-03 02:48:00,28.7,16.2,30.57,NW,315,0.0,1.7,59,0.00,,,0.00,WUHU216HW,2013-01-03 07:48:00,
2013-01-03 02:53:00,28.5,16.0,30.57,WNW,293,0.0,1.7,59,0.00,,,0.00,WUHU216HW,2013-01-03 07:53:00,
2013-01-03 02:58:00,28.5,16.0,30.57,WNW,293,0.0,0.0,59,0.00,,,0.00,WUHU216HW,2013-01-03 07:58:00,
2013-01-03 03:03:00,28.5,16.0,30.57,NW,315,0.0,0.0,59,0.00,,,0.00,WUHU216HW,2013-01-03 08:03:00,
2013-01-03 03:08:00,28.5,16.0,30.57,NW,315,5.8,5.8,59,0.00,,,0.00,WUHU216HW,2013-01-03 08:08:00,
2013-01-03 03:14:00,28.5,16.0,30.57,NW,315,0.0,5.8,59,0.00,,,0.00,WUHU216HW,2013-01-03 08:14:00,
2013-01-03 03:19:00,28.5,16.0,30.57,NW,315,2.9,6.0,59,0.00,,,0.00,WUHU216HW,2013-01-03 08:19:00,
2013-01-03 03:24:00,28.5,16.0,30.57,WNW,293,0.0,6.0,59,0.00,,,0.00,WUHU216HW,2013-01-03 08:24:00,
2013-01-03 03:29:00,28.5,16.5,30.56,NNW,338,0.0,6.0,60,0.00,,,0.00,WUHU216HW,2013-01-03 08:29:00,
2013-01-03 03:34:00,28.5,16.5,30.57,NW,315,0.0,6.0,60,0.00,,,0.00,WUHU216HW,2013-01-03 08:34:00,
2013-01-03 03:39:00,28.5,16.5,30.57,NW,315,3.8,4.2,60,0.00,,,0.00,WUHU216HW,2013-01-03 08:39:00,
2013-01-03 03:44:00,28.4,16.3,30.56,NW,315,0.0,3.8,60,0.00,,,0.00,WUHU216HW,2013-01-03 08:44:00,
2013-01-03 03:49:00,28.2,16.1,30.56,WNW,293,4.0,4.0,60,0.00,,,0.00,WUHU216HW,2013-01-03 08:49:00,
2013-01-03 03:54:00,28.2,16.1,30.56,WNW,293,2.4,4.0,60,0.00,,,0.00,WUHU216HW,2013-01-03 08:54:00,
2013-01-03 03:59:00,28.2,16.1,30.56,NW,315,0.0,4.0,60,0.00,,,0.00,WUHU216HW,2013-01-03 08:59:00,
2013-01-03 04:04:00,28.2,16.1,30.56,WNW,293,0.0,0.0,60,0.00,,,0.00,WUHU216HW,2013-01-03 09:04:00,
2013-01-03 04:09:00,28.0,15.9,30.56,WNW,293,3.8,3.8,60,0.00,,,0.00,WUHU216HW,2013-01-03 09:09:00,
2013-01-03 04:14:00,28.0,16.3,30.55,West,270,0.0,5.3,61,0.00,,,0.00,WUHU216HW,2013-01-03 09:14:00,
2013-01-03 04:19:00,27.6,15.9,30.55,NW,315,0.0,5.3,61,0.00,,,0.00,WUHU216HW,2013-01-03 09:19:00,
2013-01-03 04:24:00,27.6,15.9,30.55,WNW,293,4.0,4.0,61,0.00,,,0.00,WUHU216HW,2013-01-03 09:24:00,
2013-01-03 04:29:00,27.6,15.9,30.55,NW,315,3.3,4.0,61,0.00,,,0.00,WUHU216HW,2013-01-03 09:29:00,
2013-01-03 04:34:00,27.6,15.9,30.55,NNW,338,0.0,3.3,61,0.00,,,0.00,WUHU216HW,2013-01-03 09:34:00,
2013-01-03 04:39:00,27.6,15.9,30.55,NW,315,0.0,0.0,61,0.00,,,0.00,WUHU216HW,2013-01-03 09:39:00,
2013-01-03 04:44:00,27.6,15.9,30.55,NW,315,0.0,0.0,61,0.00,,,0.00,WUHU216HW,2013-01-03 09:44:00,
2013-01-03 04:49:00,27.5,15.8,30.56,WNW,293,4.2,4.2,61,0.00,,,0.00,WUHU216HW,2013-01-03 09:49:00,
2013-01-03 04:54:00,27.5,16.1,30.55,WNW,293,2.9,4.2,62,0.00,,,0.00,WUHU216HW,2013-01-03 09:54:00,
2013-01-03 04:59:00,27.5,16.1,30.56,WNW,293,0.0,5.3,62,0.00,,,0.00,WUHU216HW,2013-01-03 09:59:00,
2013-01-03 05:04:00,27.5,16.1,30.56,NW,315,0.0,5.3,62,0.00,,,0.00,WUHU216HW,2013-01-03 10:04:00,
2013-01-03 05:09:00,27.5,16.1,30.56,WNW,293,2.9,2.9,62,0.00,,,0.00,WUHU216HW,2013-01-03 10:09:00,
2013-01-03 05:14:00,27.5,16.1,30.56,NW,315,0.0,2.9,62,0.00,,,0.00,WUHU216HW,2013-01-03 10:14:00,
2013-01-03 05:19:00,27.3,15.9,30.56,West,270,0.0,0.0,62,0.00,,,0.00,WUHU216HW,2013-01-03 10:19:00,
2013-01-03 05:24:00,27.3,15.9,30.57,West,270,0.0,0.0,62,0.00,,,0.00,WUHU216HW,2013-01-03 10:24:00,
2013-01-03 05:29:00,27.5,16.1,30.56,WNW,293,0.0,0.0,62,0.00,,,0.00,WUHU216HW,2013-01-03 10:29:00,
2013-01-03 05:34:00,27.5,16.1,30.56,WNW,293,0.0,0.0,62,0.00,,,0.00,WUHU216HW,2013-01-03 10:34:00,
2013-01-03 05:39:00,27.5,16.1,30.56,WNW,293,0.0,0.0,62,0.00,,,0.00,WUHU216HW,2013-01-03 10:39:00,
2013-01-03 05:44:00,27.5,16.1,30.56,NW,315,0.0,0.0,62,0.00,,,0.00,WUHU216HW,2013-01-03 10:44:00,
2013-01-03 05:49:00,27.3,15.9,30.56,NW,315,0.0,0.0,62,0.00,,,0.00,WUHU216HW,2013-01-03 10:49:00,
2013-01-03 05:54:00,27.3,15.9,30.57,WNW,293,0.0,0.0,62,0.00,,,0.00,WUHU216HW,2013-01-03 10:54:00,
2013-01-03 05:59:00,27.3,15.9,30.57,WSW,248,4.4,4.4,62,0.00,,,0.00,WUHU216HW,2013-01-03 10:59:00,
2013-01-03 06:04:00,27.1,15.8,30.56,WNW,293,0.0,4.4,62,0.00,,,0.00,WUHU216HW,2013-01-03 11:04:00,
2013-01-03 06:09:00,27.1,15.8,30.57,NW,315,0.0,4.2,62,0.00,,,0.00,WUHU216HW,2013-01-03 11:09:00,
2013-01-03 06:14:00,27.1,16.1,30.57,WNW,293,0.0,0.0,63,0.00,,,0.00,WUHU216HW,2013-01-03 11:14:00,
2013-01-03 06:19:00,27.1,16.1,30.57,NW,315,6.0,6.0,63,0.00,,,0.00,WUHU216HW,2013-01-03 11:19:00,
2013-01-03 06:24:00,27.1,16.1,30.57,NW,315,2.9,6.0,63,0.00,,,0.00,WUHU216HW,2013-01-03 11:24:00,
2013-01-03 06:29:00,26.9,15.9,30.57,WNW,293,4.2,6.0,63,0.00,,,0.00,WUHU216HW,2013-01-03 11:29:00,
2013-01-03 06:34:00,26.7,15.8,30.57,WNW,293,2.0,5.3,63,0.00,,,0.00,WUHU216HW,2013-01-03 11:34:00,
2013-01-03 06:39:00,26.7,15.8,30.57,NW,315,0.0,5.3,63,0.00,,,0.00,WUHU216HW,2013-01-03 11:39:00,
2013-01-03 06:44:00,26.6,15.6,30.57,WNW,293,0.8,2.0,63,0.00,,,0.00,WUHU216HW,2013-01-03 11:44:00,
2013-01-03 06:49:00,26.4,15.8,30.57,WNW,293,2.4,2.4,64,0.00,,,0.00,WUHU216HW,2013-01-03 11:49:00,
2013-01-03 06:54:00,26.4,15.8,30.57,NW,315,0.0,2.4,64,0.00,,,0.00,WUHU216HW,2013-01-03 11:54:00,
2013-01-03 06:59:00,26.4,15.8,30.57,WNW,293,0.0,2.4,64,0.00,,,0.00,WUHU216HW,2013-01-03 11:59:00,
2013-01-03 07:04:00,26.4,15.8,30.57,WNW,293,3.5,3.5,64,0.00,,,0.00,WUHU216HW,2013-01-03 12:04:00,
2013-01-03 07:09:00,26.2,15.6,30.57,NW,315,0.0,3.5,64,0.00,,,0.00,WUHU216HW,2013-01-03 12:09:00,
2013-01-03 07:14:00,26.2,15.6,30.57,WNW,293,0.0,3.5,64,0.00,,,0.00,WUHU216HW,2013-01-03 12:14:00,
2013-01-03 07:19:00,25.8,14.9,30.57,NW,315,0.0,3.5,63,0.00,,,0.00,WUHU216HW,2013-01-03 12:19:00,
2013-01-03 07:24:00,25.8,15.2,30.57,NNW,338,0.0,3.5,64,0.00,,,0.00,WUHU216HW,2013-01-03 12:24:00,
2013-01-03 07:29:00,25.7,15.1,30.57,NW,315,0.0,0.0,64,0.00,,,0.00,WUHU216HW,2013-01-03 12:29:00,
2013-01-03 07:34:00,25.8,15.2,30.57,WNW,293,0.0,0.0,64,0.00,,,0.00,WUHU216HW,2013-01-03 12:34:00,
2013-01-03 07:39:00,25.8,15.2,30.57,WNW,293,0.0,0.0,64,0.00,,,0.00,WUHU216HW,2013-01-03 12:39:00,
2013-01-03 07:44:00,26.2,15.6,30.57,NW,315,0.0,0.0,64,0.00,,,0.00,WUHU216HW,2013-01-03 12:44:00,
2013-01-03 07:49:00,26.4,15.8,30.57,WNW,293,0.0,0.0,64,0.00,,,0.00,WUHU216HW,2013-01-03 12:49:00,
2013-01-03 07:54:00,26.7,16.1,30.57,WNW,293,0.0,0.0,64,0.00,,,0.00,WUHU216HW,2013-01-03 12:54:00,
2013-01-03 07:59:00,26.9,16.3,30.57,WNW,293,0.0,0.0,64,0.00,,,0.00,WUHU216HW,2013-01-03 12:59:00,
2013-01-03 08:04:00,27.5,16.8,30.57,WNW,293,0.0,0.0,64,0.00,,,0.00,WUHU216HW,2013-01-03 13:04:00,
2013-01-03 08:09:00,27.6,16.7,30.57,West,270,0.0,0.0,63,0.00,,,0.00,WUHU216HW,2013-01-03 13:09:00,
2013-01-03 08:14:00,27.8,16.5,30.57,NW,315,0.0,0.0,62,0.00,,,0.00,WUHU216HW,2013-01-03 13:14:00,
2013-01-03 08:19:00,27.6,16.3,30.56,WNW,293,0.0,0.0,62,0.00,,,0.00,WUHU216HW,2013-01-03 13:19:00,
2013-01-03 08:24:00,27.6,16.3,30.57,NW,315,4.6,4.6,62,0.00,,,0.00,WUHU216HW,2013-01-03 13:24:00,
2013-01-03 08:29:00,27.6,16.3,30.57,NW,315,0.0,4.6,62,0.00,,,0.00,WUHU216HW,2013-01-03 13:29:00,
2013-01-03 08:34:00,27.8,16.5,30.57,NW,315,2.4,2.4,62,0.00,,,0.00,WUHU216HW,2013-01-03 13:34:00,
2013-01-03 08:39:00,27.8,16.5,30.57,WNW,293,0.0,2.4,62,0.00,,,0.00,WUHU216HW,2013-01-03 13:39:00,
2013-01-03 08:44:00,28.0,16.7,30.57,NW,315,0.0,2.4,62,0.00,,,0.00,WUHU216HW,2013-01-03 13:44:00,
2013-01-03 08:49:00,27.6,16.3,30.57,NW,315,1.7,2.9,62,0.00,,,0.00,WUHU216HW,2013-01-03 13:49:00,
2013-01-03 08:54:00,27.6,16.3,30.57,NW,315,0.0,2.9,62,0.00,,,0.00,WUHU216HW,2013-01-03 13:54:00,
2013-01-03 08:59:00,28.0,16.7,30.57,NW,315,0.0,1.7,62,0.00,,,0.00,WUHU216HW,2013-01-03 13:59:00,
2013-01-03 09:04:00,28.5,17.2,30.57,West,270,0.0,0.0,62,0.00,,,0.00,WUHU216HW,2013-01-03 14:04:00,
2013-01-03 09:09:00,28.9,17.5,30.57,NW,315,0.0,0.0,62,0.00,,,0.00,WUHU216HW,2013-01-03 14:09:00,
2013-01-03 09:14:00,29.3,17.5,30.57,WNW,293,0.0,2.4,61,0.00,,,0.00,WUHU216HW,2013-01-03 14:14:00,
2013-01-03 09:19:00,29.4,17.3,30.57,WNW,293,2.6,4.2,60,0.00,,,0.00,WUHU216HW,2013-01-03 14:19:00,
2013-01-03 09:24:00,29.8,17.6,30.57,WNW,293,2.4,4.2,60,0.00,,,0.00,WUHU216HW,2013-01-03 14:24:00,
2013-01-03 09:29:00,30.0,17.7,30.57,WNW,293,0.0,2.6,60,0.00,,,0.00,WUHU216HW,2013-01-03 14:29:00,
2013-01-03 09:34:00,31.2,18.6,30.57,NW,315,0.0,2.6,59,0.00,,,0.00,WUHU216HW,2013-01-03 14:34:00,
2013-01-03 09:39:00,32.3,19.2,30.57,NW,315,0.0,3.1,58,0.00,,,0.00,WUHU216HW,2013-01-03 14:39:00,
2013-01-03 09:44:00,33.0,19.2,30.58,West,270,0.0,3.1,56,0.00,,,0.00,WUHU216HW,2013-01-03 14:44:00,
2013-01-03 09:49:00,33.6,19.0,30.58,West,270,0.0,2.4,55,0.00,,,0.00,WUHU216HW,2013-01-03 14:49:00,
2013-01-03 09:54:00,34.1,19.5,30.58,WNW,293,0.0,2.4,55,0.00,,,0.00,WUHU216HW,2013-01-03 14:54:00,
2013-01-03 09:59:00,35.2,19.8,30.58,West,270,0.0,3.3,54,0.00,,,0.00,WUHU216HW,2013-01-03 14:59:00,
2013-01-03 10:04:00,35.4,19.5,30.58,West,270,0.0,3.3,52,0.00,,,0.00,WUHU216HW,2013-01-03 15:04:00,
2013-01-03 10:09:00,35.7,19.0,30.58,WNW,293,0.0,0.0,50,0.00,,,0.00,WUHU216HW,2013-01-03 15:09:00,
2013-01-03 10:14:00,35.4,18.6,30.58,West,270,0.0,0.0,50,0.00,,,0.00,WUHU216HW,2013-01-03 15:14:00,
2013-01-03 10:20:00,35.2,17.9,30.58,NW,315,0.0,4.9,49,0.00,,,0.00,WUHU216HW,2013-01-03 15:20:00,
2013-01-03 10:25:00,34.7,17.4,30.58,NNE,23,0.0,4.9,49,0.00,,,0.00,WUHU216HW,2013-01-03 15:25:00,
2013-01-03 10:30:00,34.5,17.7,30.57,WNW,293,0.0,3.1,50,0.00,,,0.00,WUHU216HW,2013-01-03 15:30:00,
2013-01-03 10:35:00,34.8,18.1,30.57,NW,315,0.0,2.9,50,0.00,,,0.00,WUHU216HW,2013-01-03 15:35:00,
2013-01-03 10:40:00,34.5,17.2,30.57,WSW,248,0.0,4.9,49,0.00,,,0.00,WUHU216HW,2013-01-03 15:40:00,
2013-01-03 10:45:00,34.3,17.0,30.57,NW,315,0.0,4.9,49,0.00,,,0.00,WUHU216HW,2013-01-03 15:45:00,
2013-01-03 10:50:00,34.5,17.2,30.56,NW,315,0.0,4.2,49,0.00,,,0.00,WUHU216HW,2013-01-03 15:50:00,
2013-01-03 10:55:00,34.7,17.4,30.56,NW,315,0.0,4.2,49,0.00,,,0.00,WUHU216HW,2013-01-03 15:55:00,
2013-01-03 11:00:00,34.8,17.6,30.56,NW,315,0.0,0.0,49,0.00,,,0.00,WUHU216HW,2013-01-03 16:00:00,
2013-01-03 11:05:00,34.8,17.0,30.56,NW,315,1.7,1.7,48,0.00,,,0.00,WUHU216HW,2013-01-03 16:05:00,
2013-01-03 11:10:00,34.8,17.6,30.55,WNW,293,0.0,1.7,49,0.00,,,0.00,WUHU216HW,2013-01-03 16:10:00,
2013-01-03 11:15:00,35.2,17.4,30.55,WNW,293,4.0,4.0,48,0.00,,,0.00,WUHU216HW,2013-01-03 16:15:00,
2013-01-03 11:20:00,35.4,17.6,30.55,NW,315,3.3,4.0,48,0.00,,,0.00,WUHU216HW,2013-01-03 16:20:00,
2013-01-03 11:25:00,35.2,17.4,30.55,NNW,338,2.2,3.3,48,0.00,,,0.00,WUHU216HW,2013-01-03 16:25:00,
2013-01-03 11:30:00,35.0,17.2,30.55,NW,315,2.6,6.7,48,0.00,,,0.00,WUHU216HW,2013-01-03 16:30:00,
2013-01-03 11:35:00,35.2,17.4,30.55,West,270,0.0,6.7,48,0.00,,,0.00,WUHU216HW,2013-01-03 16:35:00,
2013-01-03 11:40:00,35.7,17.9,30.54,NW,315,0.0,0.8,48,0.00,,,0.00,WUHU216HW,2013-01-03 16:40:00,
2013-01-03 11:45:00,35.9,18.1,30.53,NW,315,4.9,4.9,48,0.00,,,0.00,WUHU216HW,2013-01-03 16:45:00,
2013-01-03 11:50:00,36.1,17.7,30.53,West,270,0.0,4.9,47,0.00,,,0.00,WUHU216HW,2013-01-03 16:50:00,
2013-01-03 11:55:00,36.1,17.7,30.53,NW,315,0.0,2.9,47,0.00,,,0.00,WUHU216HW,2013-01-03 16:55:00,
2013-01-03 12:00:00,36.1,17.2,30.52,NW,315,0.0,0.0,46,0.00,,,0.00,WUHU216HW,2013-01-03 17:00:00,
2013-01-03 12:05:00,35.9,17.6,30.52,NW,315,0.0,0.0,47,0.00,,,0.00,WUHU216HW,2013-01-03 17:05:00,
2013-01-03 12:10:00,36.6,17.7,30.51,NW,315,2.6,2.6,46,0.00,,,0.00,WUHU216HW,2013-01-03 17:10:00,
2013-01-03 12:15:00,37.2,17.7,30.51,NW,315,0.0,4.2,45,0.00,,,0.00,WUHU216HW,2013-01-03 17:15:00,
2013-01-03 12:20:00,37.2,17.1,30.51,NW,315,4.0,4.2,44,0.00,,,0.00,WUHU216HW,2013-01-03 17:20:00,
2013-01-03 12:25:00,37.2,16.6,30.50,NW,315,0.0,4.2,43,0.00,,,0.00,WUHU216HW,2013-01-03 17:25:00,
2013-01-03 12:30:00,37.4,17.3,30.50,NW,315,0.0,4.2,44,0.00,,,0.00,WUHU216HW,2013-01-03 17:30:00,
2013-01-03 12:35:00,37.5,17.5,30.50,WNW,293,0.0,0.0,44,0.00,,,0.00,WUHU216HW,2013-01-03 17:35:00,
2013-01-03 12:40:00,37.9,17.3,30.50,West,270,0.0,0.0,43,0.00,,,0.00,WUHU216HW,2013-01-03 17:40:00,
2013-01-03 12:45:00,37.9,17.3,30.50,North,0,0.0,0.0,43,0.00,,,0.00,WUHU216HW,2013-01-03 17:45:00,
2013-01-03 12:50:00,38.4,17.7,30.50,WNW,293,0.0,4.0,43,0.00,,,0.00,WUHU216HW,2013-01-03 17:50:00,
2013-01-03 12:55:00,38.6,16.9,30.50,NNW,338,0.0,4.0,41,0.00,,,0.00,WUHU216HW,2013-01-03 17:55:00,
2013-01-03 13:00:00,38.1,16.4,30.49,West,270,0.0,0.0,41,0.00,,,0.00,WUHU216HW,2013-01-03 18:00:00,
2013-01-03 13:05:00,38.3,17.1,30.49,NW,315,0.0,0.0,42,0.00,,,0.00,WUHU216HW,2013-01-03 18:05:00,
2013-01-03 13:10:00,38.4,16.7,30.48,SE,135,0.8,0.8,41,0.00,,,0.00,WUHU216HW,2013-01-03 18:10:00,
2013-01-03 13:15:00,38.3,16.5,30.48,WNW,293,0.0,2.6,41,0.00,,,0.00,WUHU216HW,2013-01-03 18:15:00,
2013-01-03 13:20:00,38.3,16.5,30.48,NW,315,0.0,2.6,41,0.00,,,0.00,WUHU216HW,2013-01-03 18:20:00,
2013-01-03 13:25:00,38.4,16.7,30.48,WSW,248,0.0,0.0,41,0.00,,,0.00,WUHU216HW,2013-01-03 18:25:00,
2013-01-03 13:30:00,38.4,16.7,30.48,WSW,248,0.0,0.0,41,0.00,,,0.00,WUHU216HW,2013-01-03 18:30:00,
2013-01-03 13:35:00,38.8,16.7,30.48,North,0,0.8,0.8,42,0.00,,,0.00,WUHU216HW,2013-01-03 18:35:00,
2013-01-03 13:40:00,38.8,16.5,30.48,NNW,338,0.0,0.8,40,0.00,,,0.00,WUHU216HW,2013-01-03 18:40:00,
2013-01-03 13:45:00,39.0,17.2,30.48,NNW,338,0.0,0.8,41,0.00,,,0.00,WUHU216HW,2013-01-03 18:45:00,
2013-01-03 13:50:00,38.8,15.9,30.48,SSE,158,0.0,2.6,39,0.00,,,0.00,WUHU216HW,2013-01-03 18:50:00,
2013-01-03 13:55:00,38.3,16.0,30.48,SE,135,0.0,2.6,40,0.00,,,0.00,WUHU216HW,2013-01-03 18:55:00,
2013-01-03 14:00:00,38.4,16.7,30.48,NW,315,0.0,0.0,41,0.00,,,0.00,WUHU216HW,2013-01-03 19:00:00,
2013-01-03 14:05:00,38.4,16.2,30.48,NNE,23,0.0,0.0,40,0.00,,,0.00,WUHU216HW,2013-01-03 19:05:00,
2013-01-03 14:10:00,38.3,16.0,30.47,NW,315,2.2,2.2,40,0.00,,,0.00,WUHU216HW,2013-01-03 19:10:00,
2013-01-03 14:15:00,38.1,15.9,30.47,WNW,293,0.0,2.2,40,0.00,,,0.00,WUHU216HW,2013-01-03 19:15:00,
2013-01-03 14:51:00,36.6,15.1,30.47,North,0,0.0,4.2,41,0.00,,,0.00,WUHU216HW,2013-01-03 19:51:00,
2013-01-03 14:59:00,36.3,15.3,30.46,WNW,293,0.0,2.9,42,0.00,,,0.00,WUHU216HW,2013-01-03 19:59:00,
2013-01-03 15:04:00,36.6,15.6,30.46,NW,315,0.0,0.0,42,0.00,,,0.00,WUHU216HW,2013-01-03 20:04:00,
2013-01-03 15:09:00,37.2,15.9,30.46,NW,315,0.0,0.0,42,0.00,,,0.00,WUHU216HW,2013-01-03 20:09:00,
2013-01-03 15:14:00,37.2,16.1,30.46,West,270,0.0,0.0,42,0.00,,,0.00,WUHU216HW,2013-01-03 20:14:00,
2013-01-03 15:19:00,37.2,15.6,30.45,North,0,0.0,0.0,41,0.00,,,0.00,WUHU216HW,2013-01-03 20:19:00,
2013-01-03 15:24:00,36.6,15.6,30.46,ESE,113,0.0,0.0,42,0.00,,,0.00,WUHU216HW,2013-01-03 20:24:00,
2013-01-03 15:29:00,36.6,15.6,30.46,NE,45,0.0,0.0,42,0.00,,,0.00,WUHU216HW,2013-01-03 20:29:00,
2013-01-03 15:34:00,36.5,15.4,30.46,NE,45,0.0,0.0,42,0.00,,,0.00,WUHU216HW,2013-01-03 20:34:00,
2013-01-03 15:39:00,35.9,15.0,30.46,NW,315,0.0,0.0,42,0.00,,,0.00,WUHU216HW,2013-01-03 20:39:00,
2013-01-03 15:44:00,35.6,15.2,30.46,NNW,338,0.0,0.0,43,0.00,,,0.00,WUHU216HW,2013-01-03 20:44:00,
2013-01-03 15:49:00,35.4,15.0,30.46,WSW,248,0.0,0.0,43,0.00,,,0.00,WUHU216HW,2013-01-03 20:49:00,
2013-01-03 15:54:00,34.8,15.0,30.46,WSW,248,0.0,0.0,44,0.00,,,0.00,WUHU216HW,2013-01-03 20:54:00,
2013-01-03 15:59:00,34.8,15.0,30.46,WSW,248,0.0,0.0,44,0.00,,,0.00,WUHU216HW,2013-01-03 20:59:00,
2013-01-03 16:04:00,34.5,14.7,30.46,SE,135,0.0,0.0,44,0.00,,,0.00,WUHU216HW,2013-01-03 21:04:00,
2013-01-03 16:09:00,34.3,15.0,30.46,SE,135,0.0,0.0,45,0.00,,,0.00,WUHU216HW,2013-01-03 21:09:00,
2013-01-03 16:14:00,33.9,14.7,30.46,NNE,23,0.0,0.0,45,0.00,,,0.00,WUHU216HW,2013-01-03 21:14:00,
2013-01-03 16:19:00,33.8,14.5,30.46,SW,225,0.0,0.0,45,0.00,,,0.00,WUHU216HW,2013-01-03 21:19:00,
2013-01-03 16:24:00,33.6,14.3,30.46,WNW,293,0.0,0.0,45,0.00,,,0.00,WUHU216HW,2013-01-03 21:24:00,
2013-01-03 16:29:00,33.4,14.2,30.46,SSW,203,0.0,0.0,45,0.00,,,0.00,WUHU216HW,2013-01-03 21:29:00,
2013-01-03 16:34:00,33.4,14.2,30.46,North,0,0.0,0.0,45,0.00,,,0.00,WUHU216HW,2013-01-03 21:34:00,
2013-01-03 16:39:00,33.0,14.3,30.46,NNW,338,0.0,0.0,46,0.00,,,0.00,WUHU216HW,2013-01-03 21:39:00,
2013-01-03 16:44:00,32.9,14.2,30.46,NW,315,0.0,0.0,46,0.00,,,0.00,WUHU216HW,2013-01-03 21:44:00,
2013-01-03 16:49:00,32.9,14.2,30.47,NW,315,0.0,0.0,46,0.00,,,0.00,WUHU216HW,2013-01-03 21:49:00,
2013-01-03 16:54:00,32.7,14.0,30.47,NNW,338,0.0,4.0,46,0.00,,,0.00,WUHU216HW,2013-01-03 21:54:00,
2013-01-03 16:59:00,32.5,14.4,30.47,NNW,338,0.0,4.0,47,0.00,,,0.00,WUHU216HW,2013-01-03 21:59:00,
2013-01-03 17:04:00,32.3,14.2,30.47,NW,315,0.0,0.0,47,0.00,,,0.00,WUHU216HW,2013-01-03 22:04:00,
2013-01-03 17:09:00,32.3,14.7,30.47,NNW,338,0.0,0.8,48,0.00,,,0.00,WUHU216HW,2013-01-03 22:09:00,
2013-01-03 17:14:00,32.3,14.7,30.47,NW,315,0.0,0.8,48,0.00,,,0.00,WUHU216HW,2013-01-03 22:14:00,
2013-01-03 17:19:00,32.3,14.7,30.47,NNW,338,2.9,4.4,48,0.00,,,0.00,WUHU216HW,2013-01-03 22:19:00,
2013-01-03 17:24:00,32.1,14.5,30.47,NNE,23,0.0,4.4,48,0.00,,,0.00,WUHU216HW,2013-01-03 22:24:00,
2013-01-03 17:29:00,32.1,14.5,30.48,NW,315,0.0,3.1,48,0.00,,,0.00,WUHU216HW,2013-01-03 22:29:00,
2013-01-03 17:34:00,32.1,14.5,30.48,NNW,338,0.0,0.0,48,0.00,,,0.00,WUHU216HW,2013-01-03 22:34:00,
2013-01-03 17:39:00,32.1,14.5,30.48,NW,315,0.0,4.0,48,0.00,,,0.00,WUHU216HW,2013-01-03 22:39:00,
2013-01-03 17:44:00,32.0,14.9,30.48,NNE,23,0.0,4.0,49,0.00,,,0.00,WUHU216HW,2013-01-03 22:44:00,
2013-01-03 17:49:00,31.8,14.7,30.48,NNW,338,0.0,0.0,49,0.00,,,0.00,WUHU216HW,2013-01-03 22:49:00,
2013-01-03 17:54:00,31.8,14.7,30.48,SE,135,1.3,1.3,49,0.00,,,0.00,WUHU216HW,2013-01-03 22:54:00,
2013-01-03 17:59:00,31.8,14.7,30.48,NNW,338,0.0,2.6,49,0.00,,,0.00,WUHU216HW,2013-01-03 22:59:00,
2013-01-03 18:04:00,31.8,14.7,30.48,NW,315,0.0,2.6,49,0.00,,,0.00,WUHU216HW,2013-01-03 23:04:00,
2013-01-03 18:09:00,31.8,14.7,30.48,South,180,0.0,5.1,49,0.00,,,0.00,WUHU216HW,2013-01-03 23:09:00,
2013-01-03 18:14:00,31.8,14.7,30.49,NW,315,0.0,5.1,49,0.00,,,0.00,WUHU216HW,2013-01-03 23:14:00,
2013-01-03 18:20:00,31.8,14.7,30.48,NW,315,3.5,3.5,49,0.00,,,0.00,WUHU216HW,2013-01-03 23:20:00,
2013-01-03 18:25:00,31.8,14.7,30.48,NW,315,0.0,3.5,49,0.00,,,0.00,WUHU216HW,2013-01-03 23:25:00,
2013-01-03 18:30:00,31.8,14.7,30.48,NE,45,0.0,3.5,49,0.00,,,0.00,WUHU216HW,2013-01-03 23:30:00,
2013-01-03 18:35:00,31.6,14.6,30.48,NNW,338,0.0,1.7,49,0.00,,,0.00,WUHU216HW,2013-01-03 23:35:00,
2013-01-03 18:40:00,31.6,15.1,30.48,NNE,23,0.0,1.7,50,0.00,,,0.00,WUHU216HW,2013-01-03 23:40:00,
2013-01-03 18:45:00,31.6,15.1,30.49,NE,45,0.0,0.0,50,0.00,,,0.00,WUHU216HW,2013-01-03 23:45:00,
2013-01-03 18:50:00,31.6,15.5,30.49,NE,45,0.0,4.0,51,0.00,,,0.00,WUHU216HW,2013-01-03 23:50:00,
2013-01-03 18:55:00,31.6,15.5,30.49,NNW,338,0.0,4.0,51,0.00,,,0.00,WUHU216HW,2013-01-03 23:55:00,
2013-01-03 19:00:00,31.4,15.3,30.49,WSW,248,3.1,3.1,51,0.00,,,0.00,WUHU216HW,2013-01-04 00:00:00,
2013-01-03 19:05:00,31.6,15.5,30.49,North,0,0.0,3.1,51,0.00,,,0.00,WUHU216HW,2013-01-04 00:05:00,
2013-01-03 19:10:00,31.6,15.5,30.49,NNW,338,4.2,4.2,51,0.00,,,0.00,WUHU216HW,2013-01-04 00:10:00,
2013-01-03 19:15:00,31.2,15.2,30.49,North,0,0.0,4.2,51,0.00,,,0.00,WUHU216HW,2013-01-04 00:15:00,
2013-01-03 19:20:00,31.2,15.2,30.49,SE,135,0.0,3.3,51,0.00,,,0.00,WUHU216HW,2013-01-04 00:20:00,
2013-01-03 19:25:00,31.4,15.3,30.49,NE,45,0.0,5.3,51,0.00,,,0.00,WUHU216HW,2013-01-04 00:25:00,
2013-01-03 19:30:00,31.6,15.5,30.49,North,0,3.8,5.3,51,0.00,,,0.00,WUHU216HW,2013-01-04 00:30:00,
2013-01-03 19:35:00,31.6,15.5,30.49,NW,315,0.0,3.8,51,0.00,,,0.00,WUHU216HW,2013-01-04 00:35:00,
2013-01-03 19:40:00,31.6,15.5,30.49,NNE,23,2.4,2.6,51,0.00,,,0.00,WUHU216HW,2013-01-04 00:40:00,
2013-01-03 19:45:00,31.8,15.2,30.49,NW,315,0.0,2.4,50,0.00,,,0.00,WUHU216HW,2013-01-04 00:45:00,
2013-01-03 19:50:00,31.8,15.2,30.49,NW,315,0.0,0.0,50,0.00,,,0.00,WUHU216HW,2013-01-04 00:50:00,
2013-01-03 19:55:00,31.8,15.2,30.49,NNW,338,0.0,0.0,50,0.00,,,0.00,WUHU216HW,2013-01-04 00:55:00,
2013-01-03 20:00:00,31.8,15.2,30.49,NW,315,0.0,0.0,50,0.00,,,0.00,WUHU216HW,2013-01-04 01:00:00,
2013-01-03 20:05:00,32.1,15.6,30.49,NE,45,0.0,3.5,50,0.00,,,0.00,WUHU216HW,2013-01-04 01:05:00,
2013-01-03 20:10:00,32.1,15.6,30.49,North,0,0.0,3.5,50,0.00,,,0.00,WUHU216HW,2013-01-04 01:10:00,
2013-01-03 20:15:00,32.1,15.6,30.49,NNW,338,4.2,4.2,50,0.00,,,0.00,WUHU216HW,2013-01-04 01:15:00,
2013-01-03 20:20:00,32.1,15.6,30.49,South,180,0.0,4.2,50,0.00,,,0.00,WUHU216HW,2013-01-04 01:20:00,
2013-01-03 20:25:00,32.1,15.6,30.49,WSW,248,0.0,4.2,50,0.00,,,0.00,WUHU216HW,2013-01-04 01:25:00,
2013-01-03 20:30:00,31.8,15.2,30.49,North,0,0.0,3.8,50,0.00,,,0.00,WUHU216HW,2013-01-04 01:30:00,
2013-01-03 20:35:00,31.8,15.2,30.48,West,270,0.0,2.4,50,0.00,,,0.00,WUHU216HW,2013-01-04 01:35:00,
2013-01-03 20:40:00,31.8,15.2,30.49,NW,315,0.0,2.4,50,0.00,,,0.00,WUHU216HW,2013-01-04 01:40:00,
2013-01-03 20:45:00,32.0,15.4,30.48,WSW,248,0.0,2.6,50,0.00,,,0.00,WUHU216HW,2013-01-04 01:45:00,
2013-01-03 20:50:00,32.1,15.6,30.48,NNW,338,0.0,2.6,50,0.00,,,0.00,WUHU216HW,2013-01-04 01:50:00,
2013-01-03 20:55:00,32.0,15.4,30.48,NNW,338,0.0,0.0,50,0.00,,,0.00,WUHU216HW,2013-01-04 01:55:00,
2013-01-03 21:00:00,31.8,15.2,30.48,SSE,158,0.0,2.6,50,0.00,,,0.00,WUHU216HW,2013-01-04 02:00:00,
2013-01-03 21:05:00,31.8,15.2,30.48,SE,135,0.0,2.6,50,0.00,,,0.00,WUHU216HW,2013-01-04 02:05:00,
2013-01-03 21:10:00,31.8,15.6,30.47,NNE,23,4.0,4.0,51,0.00,,,0.00,WUHU216HW,2013-01-04 02:10:00,
2013-01-03 21:15:00,31.8,15.6,30.47,NNW,338,2.6,4.0,51,0.00,,,0.00,WUHU216HW,2013-01-04 02:15:00,
2013-01-03 21:20:00,31.8,15.6,30.48,WNW,293,0.0,2.6,51,0.00,,,0.00,WUHU216HW,2013-01-04 02:20:00,
2013-01-03 21:25:00,31.6,15.9,30.47,NE,45,0.0,2.6,52,0.00,,,0.00,WUHU216HW,2013-01-04 02:25:00,
2013-01-03 21:30:00,31.6,15.9,30.47,North,0,0.0,0.0,52,0.00,,,0.00,WUHU216HW,2013-01-04 02:30:00,
2013-01-03 21:35:00,31.6,15.9,30.47,NNW,338,0.0,0.0,52,0.00,,,0.00,WUHU216HW,2013-01-04 02:35:00,
2013-01-03 21:40:00,31.6,15.9,30.47,SSE,158,0.0,0.0,52,0.00,,,0.00,WUHU216HW,2013-01-04 02:40:00,
2013-01-03 21:45:00,31.6,16.3,30.47,East,90,0.0,0.0,53,0.00,,,0.00,WUHU216HW,2013-01-04 02:45:00,
2013-01-03 21:50:00,31.6,16.3,30.47,NNE,23,3.5,3.5,53,0.00,,,0.00,WUHU216HW,2013-01-04 02:50:00,
2013-01-03 21:55:00,31.6,16.3,30.47,NW,315,0.0,4.0,53,0.00,,,0.00,WUHU216HW,2013-01-04 02:55:00,
2013-01-03 22:00:00,31.8,16.5,30.47,NW,315,5.8,5.8,53,0.00,,,0.00,WUHU216HW,2013-01-04 03:00:00,
2013-01-03 22:05:00,31.8,16.5,30.47,West,270,0.0,5.8,53,0.00,,,0.00,WUHU216HW,2013-01-04 03:05:00,
2013-01-03 22:10:00,31.8,16.5,30.47,NW,315,0.0,5.8,53,0.00,,,0.00,WUHU216HW,2013-01-04 03:10:00,
2013-01-03 22:15:00,31.8,16.5,30.47,NNW,338,3.8,3.8,53,0.00,,,0.00,WUHU216HW,2013-01-04 03:15:00,
2013-01-03 22:20:00,31.8,16.5,30.47,NNE,23,0.0,3.8,53,0.00,,,0.00,WUHU216HW,2013-01-04 03:20:00,
2013-01-03 22:25:00,31.8,16.9,30.48,North,0,0.0,3.8,54,0.00,,,0.00,WUHU216HW,2013-01-04 03:25:00,
2013-01-03 22:30:00,32.0,16.9,30.48,North,0,4.9,4.9,54,0.00,,,0.00,WUHU216HW,2013-01-04 03:30:00,
2013-01-03 22:35:00,32.0,17.1,30.48,NNW,338,0.0,4.9,54,0.00,,,0.00,WUHU216HW,2013-01-04 03:35:00,
2013-01-03 22:40:00,32.1,17.3,30.48,West,270,0.0,4.9,54,0.00,,,0.00,WUHU216HW,2013-01-04 03:40:00,
2013-01-03 22:45:00,32.1,17.3,30.47,NNW,338,0.0,0.0,54,0.00,,,0.00,WUHU216HW,2013-01-04 03:45:00,
2013-01-03 22:50:00,32.1,17.3,30.47,NW,315,0.0,2.2,54,0.00,,,0.00,WUHU216HW,2013-01-04 03:50:00,
2013-01-03 22:55:00,32.1,17.3,30.47,WSW,248,0.0,2.2,54,0.00,,,0.00,WUHU216HW,2013-01-04 03:55:00,
2013-01-03 23:00:00,32.1,17.3,30.47,West,270,0.0,0.0,54,0.00,,,0.00,WUHU216HW,2013-01-04 04:00:00,
2013-01-03 23:05:00,32.1,17.3,30.46,WSW,248,0.0,0.0,54,0.00,,,0.00,WUHU216HW,2013-01-04 04:05:00,
2013-01-03 23:10:00,32.1,17.7,30.47,North,0,0.0,0.0,55,0.00,,,0.00,WUHU216HW,2013-01-04 04:10:00,
2013-01-03 23:15:00,32.1,17.7,30.46,NNE,23,0.0,0.0,55,0.00,,,0.00,WUHU216HW,2013-01-04 04:15:00,
2013-01-03 23:20:00,32.1,17.7,30.46,WSW,248,0.0,0.0,55,0.00,,,0.00,WUHU216HW,2013-01-04 04:20:00,
2013-01-03 23:25:00,32.1,17.7,30.47,North,0,0.0,5.8,55,0.00,,,0.00,WUHU216HW,2013-01-04 04:25:00,
2013-01-03 23:30:00,32.1,17.7,30.46,NNW,338,0.0,5.8,55,0.00,,,0.00,WUHU216HW,2013-01-04 04:30:00,
2013-01-03 23:35:00,32.1,17.7,30.46,East,90,0.0,5.3,55,0.00,,,0.00,WUHU216HW,2013-01-04 04:35:00,
2013-01-03 23:40:00,32.1,17.7,30.46,North,0,5.5,5.5,55,0.00,,,0.00,WUHU216HW,2013-01-04 04:40:00,
2013-01-03 23:45:00,32.1,18.1,30.45,NE,45,0.0,5.5,56,0.00,,,0.00,WUHU216HW,2013-01-04 04:45:00,
2013-01-03 23:50:00,32.1,18.1,30.45,North,0,0.0,2.2,56,0.00,,,0.00,WUHU216HW,2013-01-04 04:50:00,
2013-01-03 23:55:00,32.1,18.1,30.45,North,0,2.4,2.4,56,0.00,,,0.00,WUHU216HW,2013-01-04 04:55:00,